Terminal Aerodrome Forecast
Issued by NWS Albany, NY

Home | Current Version | Previous Version | Text Only | Print | Product List | Glossary On
Versions: 1 2 3 4 5 6 7 8 9 10 11 12 13 14 15 16 17 18 19 20 21 22
512
FTUS41 KALY 261737
TAFALB
TAF
KALB 261737Z 2618/2718 15005KT 6SM -RA BR OVC035
     FM261900 16005KT P6SM OVC035
     FM270300 15008KT P6SM OVC025 PROB30 2703/2705 4SM -RA OVC025
     FM270500 15008KT 3SM -RA OVC015
     FM271700 18005KT 6SM BR VCSH OVC010=

USA.gov is the U.S. government's official web portal to all federal, state and local government web resources and services.